createdAt,value
2024-03-12T00:00:33.232Z,-23369.41
2024-03-12T00:02:36.207Z,-23368.44
2024-03-12T00:04:39.149Z,-23369.41
2024-03-12T00:06:43.911Z,-23369.25
2024-03-12T00:08:46.684Z,-23368.44
2024-03-12T00:10:49.452Z,-23364.31
2024-03-12T00:12:53.599Z,-23364.00
2024-03-12T00:14:56.653Z,-23364.63
2024-03-12T00:16:59.428Z,-23361.13
2024-03-12T00:19:02.244Z,-23359.84
2024-03-12T00:21:06.733Z,-23360.16
2024-03-12T00:23:10.873Z,-23359.84
2024-03-12T00:25:14.634Z,-23360.97
2024-03-12T00:27:19.983Z,-23362.06
2024-03-12T00:29:22.938Z,-23360.00
2024-03-12T00:31:25.915Z,-23359.22
2024-03-12T00:33:28.726Z,-23361.28
2024-03-12T00:35:33.938Z,-23359.53
2024-03-12T00:37:35.929Z,-23360.16
2024-03-12T00:39:40.086Z,-23357.00
2024-03-12T00:41:42.803Z,-23356.03
2024-03-12T00:43:46.745Z,-23353.19
2024-03-12T00:45:50.021Z,-23354.13
2024-03-12T00:47:54.109Z,-23350.31
2024-03-12T00:49:59.618Z,-23350.16
2024-03-12T00:52:04.896Z,-23348.41
2024-03-12T00:54:07.590Z,-23347.75
2024-03-12T00:56:16.440Z,-23348.41
2024-03-12T00:58:21.228Z,-23346.50
2024-03-12T01:00:26.871Z,-23345.22
2024-03-12T01:02:31.460Z,-23345.69
2024-03-12T01:04:34.251Z,-23342.66
2024-03-12T01:06:36.971Z,-23341.06
2024-03-12T01:08:40.661Z,-23342.66
2024-03-12T01:10:43.476Z,-23337.91
2024-03-12T01:12:47.862Z,-23338.69
2024-03-12T01:14:49.635Z,-23338.69
2024-03-12T01:16:52.334Z,-23335.03
2024-03-12T01:18:55.181Z,-23337.25
2024-03-12T01:20:59.308Z,-23336.47
2024-03-12T01:23:02.285Z,-23336.63
2024-03-12T01:25:05.679Z,-23333.91
2024-03-12T01:27:08.672Z,-23330.88
2024-03-12T01:29:12.793Z,-23327.72
2024-03-12T01:31:16.321Z,-23326.44
2024-03-12T01:33:19.363Z,-23325.16
2024-03-12T01:35:23.899Z,-23323.25
2024-03-12T01:37:26.706Z,-23323.25
2024-03-12T01:39:29.711Z,-23324.69
2024-03-12T01:41:33.534Z,-23323.72
2024-03-12T01:43:36.531Z,-23323.25
2024-03-12T01:45:43.282Z,-23325.16
2024-03-12T01:47:47.745Z,-23322.31
2024-03-12T01:49:50.904Z,-23322.31
2024-03-12T01:51:54.374Z,-23320.06
2024-03-12T01:53:57.739Z,-23320.53
2024-03-12T01:56:01.265Z,-23321.97
2024-03-12T01:58:04.105Z,-23321.66
2024-03-12T02:00:11.867Z,-23321.34
2024-03-12T02:02:18.324Z,-23320.53
2024-03-12T02:04:21.382Z,-23318.16
2024-03-12T02:06:23.852Z,-23321.03
2024-03-12T02:08:26.717Z,-23322.31
2024-03-12T02:10:29.668Z,-23322.63
2024-03-12T02:12:32.047Z,-23322.94
2024-03-12T02:14:36.847Z,-23320.38
2024-03-12T02:16:40.125Z,-23319.75
2024-03-12T02:18:44.296Z,-23321.19
2024-03-12T02:20:47.191Z,-23318.78
2024-03-12T02:22:49.083Z,-23318.78
2024-03-12T02:24:53.796Z,-23321.03
2024-03-12T02:26:56.609Z,-23320.38
2024-03-12T02:28:59.317Z,-23320.22
2024-03-12T02:31:02.121Z,-23318.16
2024-03-12T02:33:05.105Z,-23316.09
2024-03-12T02:35:11.546Z,-23314.03
2024-03-12T02:37:14.496Z,-23313.06
2024-03-12T02:39:19.777Z,-23312.09
2024-03-12T02:41:23.872Z,-23309.25
2024-03-12T02:43:26.664Z,-23309.56
2024-03-12T02:45:29.434Z,-23310.19
2024-03-12T02:47:32.259Z,-23310.03
2024-03-12T02:49:36.819Z,-23308.75
2024-03-12T02:51:39.532Z,-23307.50
2024-03-12T02:53:42.252Z,-23309.88
2024-03-12T02:55:46.158Z,-23308.44
2024-03-12T02:57:49.357Z,-23306.06
2024-03-12T02:59:53.519Z,-23307.00
2024-03-12T03:01:56.990Z,-23307.97
2024-03-12T03:03:59.904Z,-23307.66
2024-03-12T03:06:02.700Z,-23307.00
2024-03-12T03:08:05.833Z,-23306.69
2024-03-12T03:10:07.945Z,-23305.75
2024-03-12T03:12:10.760Z,-23305.59
2024-03-12T03:14:14.819Z,-23307.00
2024-03-12T03:16:16.701Z,-23308.28
2024-03-12T03:18:19.627Z,-23307.97
2024-03-12T03:20:21.429Z,-23307.81
2024-03-12T03:22:24.224Z,-23309.25
2024-03-12T03:24:25.947Z,-23309.41
2024-03-12T03:26:28.718Z,-23311.78
2024-03-12T03:28:31.552Z,-23312.25
2024-03-12T03:30:35.652Z,-23314.03
2024-03-12T03:32:37.449Z,-23314.19
2024-03-12T03:34:40.310Z,-23314.81
2024-03-12T03:36:44.185Z,-23313.69
2024-03-12T03:38:47.013Z,-23314.81
2024-03-12T03:40:49.883Z,-23319.28
2024-03-12T03:42:53.175Z,-23317.84
2024-03-12T03:44:56.106Z,-23318.97
2024-03-12T03:47:00.129Z,-23321.03
2024-03-12T03:49:02.915Z,-23323.91
2024-03-12T03:51:06.553Z,-23322.31
2024-03-12T03:53:10.007Z,-23321.81
2024-03-12T03:55:12.881Z,-23324.38
2024-03-12T03:57:16.688Z,-23328.81
2024-03-12T03:59:20.690Z,-23331.38
2024-03-12T04:01:24.924Z,-23333.44
2024-03-12T04:03:29.027Z,-23335.81
2024-03-12T04:05:34.086Z,-23337.91
2024-03-12T04:07:35.933Z,-23336.94
2024-03-12T04:09:38.719Z,-23341.72
2024-03-12T04:11:44.872Z,-23340.44
2024-03-12T04:13:47.640Z,-23341.25
2024-03-12T04:15:50.442Z,-23341.72
2024-03-12T04:17:53.172Z,-23338.53
2024-03-12T04:19:56.418Z,-23341.88
2024-03-12T04:21:59.576Z,-23336.31
2024-03-12T04:24:01.534Z,-23335.34
2024-03-12T04:26:04.881Z,-23335.66
2024-03-12T04:28:10.979Z,-23334.25
2024-03-12T04:30:14.910Z,-23335.34
2024-03-12T04:32:17.723Z,-23336.94
2024-03-12T04:34:21.864Z,-23338.22
2024-03-12T04:36:26.255Z,-23337.56
2024-03-12T04:38:31.272Z,-23337.56
2024-03-12T04:40:33.914Z,-23335.34
2024-03-12T04:42:36.348Z,-23340.44
2024-03-12T04:44:39.531Z,-23343.78
2024-03-12T04:46:44.005Z,-23344.25
2024-03-12T04:48:47.994Z,-23343.63
2024-03-12T04:50:50.861Z,-23345.53
2024-03-12T04:52:54.901Z,-23344.09
2024-03-12T04:54:58.242Z,-23346.16
2024-03-12T04:57:01.305Z,-23344.09
2024-03-12T04:59:04.099Z,-23344.59
2024-03-12T05:01:08.017Z,-23347.13
2024-03-12T05:03:10.793Z,-23346.81
2024-03-12T05:05:14.928Z,-23348.09
2024-03-12T05:07:17.912Z,-23349.19
2024-03-12T05:09:21.047Z,-23348.72
2024-03-12T05:11:23.954Z,-23348.88
2024-03-12T05:13:27.283Z,-23349.03
2024-03-12T05:15:30.021Z,-23350.94
2024-03-12T05:17:32.855Z,-23353.66
2024-03-12T05:19:35.826Z,-23349.19
2024-03-12T05:21:38.648Z,-23349.66
2024-03-12T05:23:40.573Z,-23351.91
2024-03-12T05:25:47.348Z,-23351.91
2024-03-12T05:27:50.028Z,-23351.25
2024-03-12T05:29:55.218Z,-23353.50
2024-03-12T05:31:57.946Z,-23349.50
2024-03-12T05:34:01.205Z,-23353.66
2024-03-12T05:36:10.841Z,-23354.75
2024-03-12T05:38:23.517Z,-23356.03
2024-03-12T05:40:30.915Z,-23357.78
2024-03-12T05:42:52.610Z,-23357.16
2024-03-12T05:45:12.989Z,-23356.03
2024-03-12T05:47:33.676Z,-23355.09
2024-03-12T05:49:36.489Z,-23354.59
2024-03-12T05:51:39.659Z,-23353.19
2024-03-12T05:53:43.041Z,-23355.41
2024-03-12T05:55:44.755Z,-23352.06
2024-03-12T05:57:48.768Z,-23354.44
2024-03-12T05:59:52.156Z,-23355.09
2024-03-12T06:01:54.935Z,-23356.34
2024-03-12T06:03:57.764Z,-23358.25
2024-03-12T06:06:00.721Z,-23355.09
2024-03-12T06:08:03.486Z,-23355.25
2024-03-12T06:10:08.630Z,-23359.22
2024-03-12T06:12:11.299Z,-23353.66
2024-03-12T06:14:15.512Z,-23356.03
2024-03-12T06:16:19.943Z,-23356.03
2024-03-12T06:18:24.102Z,-23358.09
2024-03-12T06:20:28.497Z,-23359.06
2024-03-12T06:22:31.546Z,-23356.66
2024-03-12T06:24:34.790Z,-23358.44
2024-03-12T06:26:38.028Z,-23355.41
2024-03-12T06:28:41.244Z,-23358.25
2024-03-12T06:30:44.854Z,-23358.25
2024-03-12T06:32:47.772Z,-23361.28
2024-03-12T06:34:51.738Z,-23360.66
2024-03-12T06:36:58.637Z,-23366.69
2024-03-12T06:39:01.857Z,-23365.56
2024-03-12T06:41:08.397Z,-23367.81
2024-03-12T06:43:14.460Z,-23365.91
2024-03-12T06:45:18.260Z,-23364.16
2024-03-12T06:47:23.615Z,-23369.25
2024-03-12T06:49:26.314Z,-23366.06
2024-03-12T06:51:33.091Z,-23367.00
2024-03-12T06:53:37.016Z,-23367.81
2024-03-12T06:55:39.768Z,-23368.44
2024-03-12T06:57:48.982Z,-23365.56
2024-03-12T06:59:52.365Z,-23364.94
2024-03-12T07:01:56.550Z,-23364.94
2024-03-12T07:04:02.540Z,-23369.06
2024-03-12T07:06:05.691Z,-23368.13
2024-03-12T07:08:08.897Z,-23372.91
2024-03-12T07:10:12.877Z,-23371.31
2024-03-12T07:12:17.442Z,-23369.56
2024-03-12T07:14:28.602Z,-23372.91
2024-03-12T07:16:31.997Z,-23372.56
2024-03-12T07:18:34.978Z,-23374.00
2024-03-12T07:20:38.112Z,-23377.19
2024-03-12T07:22:46.386Z,-23373.84
2024-03-12T07:24:50.189Z,-23377.50
2024-03-12T07:26:52.886Z,-23381.00
2024-03-12T07:28:55.614Z,-23380.53
2024-03-12T07:30:58.440Z,-23380.38
2024-03-12T07:33:01.394Z,-23383.53
2024-03-12T07:35:04.288Z,-23378.31
2024-03-12T07:37:09.199Z,-23377.66
2024-03-12T07:39:25.812Z,-23380.84
2024-03-12T07:41:31.452Z,-23383.06
2024-03-12T07:43:34.255Z,-23386.09
2024-03-12T07:45:37.660Z,-23383.69
2024-03-12T07:47:40.852Z,-23384.03
2024-03-12T07:49:44.209Z,-23386.56
2024-03-12T07:51:47.004Z,-23382.91
2024-03-12T07:53:51.408Z,-23385.94
2024-03-12T07:55:57.468Z,-23384.34
2024-03-12T07:58:02.292Z,-23382.75
2024-03-12T08:00:06.702Z,-23383.88
2024-03-12T08:02:12.833Z,-23387.53
2024-03-12T08:04:15.801Z,-23391.00
2024-03-12T08:06:18.470Z,-23385.94
2024-03-12T08:08:21.417Z,-23385.59
2024-03-12T08:10:26.487Z,-23385.59
2024-03-12T08:12:29.292Z,-23385.44
2024-03-12T08:14:33.653Z,-23390.06
2024-03-12T08:16:36.646Z,-23392.28
2024-03-12T08:18:39.908Z,-23391.34
2024-03-12T08:20:42.244Z,-23394.34
2024-03-12T08:22:48.576Z,-23398.00
2024-03-12T08:24:52.003Z,-23398.00
2024-03-12T08:26:56.125Z,-23397.38
2024-03-12T08:28:59.265Z,-23394.50
2024-03-12T08:31:08.550Z,-23393.88
2024-03-12T08:33:18.783Z,-23387.84
2024-03-12T08:35:21.656Z,-23387.84
2024-03-12T08:37:23.974Z,-23387.84
2024-03-12T08:39:29.762Z,-23386.72
2024-03-12T08:41:34.170Z,-23388.47
2024-03-12T08:43:37.598Z,-23387.69
2024-03-12T08:45:40.864Z,-23387.69
2024-03-12T08:47:43.946Z,-23388.16
2024-03-12T08:49:47.220Z,-23388.47
2024-03-12T08:51:50.237Z,-23389.75
2024-03-12T08:53:53.150Z,-23385.94
2024-03-12T08:55:54.993Z,-23386.56
2024-03-12T08:57:57.709Z,-23385.28
2024-03-12T09:00:02.566Z,-23393.56
2024-03-12T09:02:07.161Z,-23393.56
2024-03-12T09:04:10.179Z,-23392.91
2024-03-12T09:06:12.992Z,-23394.34
2024-03-12T09:08:15.827Z,-23400.38
2024-03-12T09:10:19.903Z,-23401.19
2024-03-12T09:12:23.501Z,-23397.38
2024-03-12T09:14:26.731Z,-23396.56
2024-03-12T09:16:31.140Z,-23399.28
2024-03-12T09:18:36.295Z,-23404.03
2024-03-12T09:20:39.136Z,-23405.63
2024-03-12T09:22:45.419Z,-23405.94
2024-03-12T09:24:47.390Z,-23404.69
2024-03-12T09:26:51.682Z,-23407.22
2024-03-12T09:28:54.352Z,-23408.50
2024-03-12T09:30:57.272Z,-23409.91
2024-03-12T09:33:01.439Z,-23410.72
2024-03-12T09:35:04.767Z,-23415.78
2024-03-12T09:37:08.412Z,-23424.53
2024-03-12T09:39:12.775Z,-23420.88
2024-03-12T09:41:17.904Z,-23415.78
2024-03-12T09:43:25.374Z,-23415.78
2024-03-12T09:45:28.544Z,-23412.94
2024-03-12T09:47:31.621Z,-23410.72
2024-03-12T09:49:36.947Z,-23410.41
2024-03-12T09:51:40.224Z,-23409.75
2024-03-12T09:53:43.333Z,-23412.31
2024-03-12T09:55:46.973Z,-23414.84
2024-03-12T09:57:48.828Z,-23411.81
2024-03-12T09:59:53.207Z,-23412.63
2024-03-12T10:01:56.124Z,-23411.66
2024-03-12T10:03:58.320Z,-23415.47
2024-03-12T10:06:03.661Z,-23415.63
2024-03-12T10:08:08.588Z,-23418.81
2024-03-12T10:10:11.908Z,-23416.44
2024-03-12T10:12:20.825Z,-23420.41
2024-03-12T10:14:24.316Z,-23417.69
2024-03-12T10:16:28.937Z,-23421.19
2024-03-12T10:18:32.267Z,-23419.28
2024-03-12T10:20:46.715Z,-23418.81
2024-03-12T10:23:04.866Z,-23415.47
2024-03-12T10:25:11.831Z,-23422.47
2024-03-12T10:27:16.002Z,-23423.72
2024-03-12T10:29:20.118Z,-23419.13
2024-03-12T10:31:22.017Z,-23417.22
2024-03-12T10:33:26.240Z,-23422.47
2024-03-12T10:35:30.298Z,-23423.72
2024-03-12T10:37:35.637Z,-23420.25
2024-03-12T10:39:40.920Z,-23422.63
2024-03-12T10:41:44.575Z,-23418.97
2024-03-12T10:43:50.650Z,-23416.75
2024-03-12T10:45:55.189Z,-23420.56
2024-03-12T10:47:59.719Z,-23410.72
2024-03-12T10:50:07.843Z,-23414.53
2024-03-12T10:52:11.378Z,-23418.97
2024-03-12T10:54:17.701Z,-23418.34
2024-03-12T10:56:23.266Z,-23417.53
2024-03-12T10:58:27.675Z,-23424.06
2024-03-12T11:00:31.754Z,-23428.81
2024-03-12T11:02:34.855Z,-23429.28
2024-03-12T11:04:38.210Z,-23435.16
2024-03-12T11:06:41.659Z,-23431.34
2024-03-12T11:08:44.472Z,-23425.16
2024-03-12T11:10:48.738Z,-23428.81
2024-03-12T11:12:55.284Z,-23429.78
2024-03-12T11:14:57.978Z,-23429.78
2024-03-12T11:17:01.594Z,-23433.41
2024-03-12T11:19:18.916Z,-23434.22
2024-03-12T11:21:25.788Z,-23435.97
2024-03-12T11:23:29.865Z,-23426.91
2024-03-12T11:25:34.956Z,-23433.41
2024-03-12T11:27:38.946Z,-23430.41
2024-03-12T11:30:17.504Z,-23432.63
2024-03-12T11:32:19.827Z,-23436.28
2024-03-12T11:34:33.204Z,-23433.28
2024-03-12T11:36:44.421Z,-23436.28
2024-03-12T11:38:47.578Z,-23440.56
2024-03-12T11:40:52.331Z,-23450.25
2024-03-12T11:42:56.071Z,-23450.72
2024-03-12T11:44:58.990Z,-23450.56
2024-03-12T11:47:03.819Z,-23444.06
2024-03-12T11:49:07.449Z,-23445.81
2024-03-12T11:51:12.813Z,-23444.38
2024-03-12T11:53:18.704Z,-23440.88
2024-03-12T11:55:58.835Z,-23436.75
2024-03-12T11:58:04.708Z,-23434.22
2024-03-12T12:00:11.161Z,-23430.41
2024-03-12T12:02:19.378Z,-23424.69
2024-03-12T12:04:23.215Z,-23426.28
2024-03-12T12:06:25.983Z,-23434.22
2024-03-12T12:08:29.028Z,-23437.41
2024-03-12T12:10:30.764Z,-23442.47
2024-03-12T12:12:34.448Z,-23436.44
2024-03-12T12:14:41.195Z,-23440.41
2024-03-12T12:16:44.146Z,-23430.72
2024-03-12T12:18:48.742Z,-23440.88
2024-03-12T12:20:50.498Z,-23440.25
2024-03-12T12:22:53.162Z,-23436.91
2024-03-12T12:24:58.024Z,-23430.41
2024-03-12T12:27:01.697Z,-23429.44
2024-03-12T12:29:05.947Z,-23425.97
2024-03-12T12:31:12.973Z,-23420.41
2024-03-12T12:33:17.447Z,-23418.97
2024-03-12T12:35:24.206Z,-23424.22
2024-03-12T12:37:27.354Z,-23436.75
2024-03-12T12:39:43.723Z,-23441.19
2024-03-12T12:41:57.479Z,-23425.97
2024-03-12T12:44:00.476Z,-23438.34
2024-03-12T12:46:06.335Z,-23430.72
2024-03-12T12:48:11.520Z,-23431.03
2024-03-12T12:50:25.684Z,-23428.50
2024-03-12T12:52:28.923Z,-23436.75
2024-03-12T12:54:37.036Z,-23440.25
2024-03-12T12:56:43.390Z,-23435.00
2024-03-12T12:58:46.337Z,-23435.16
2024-03-12T13:01:02.002Z,-23430.56
2024-03-12T13:03:17.471Z,-23433.09
2024-03-12T13:05:21.918Z,-23431.69
2024-03-12T13:07:34.822Z,-23423.41
2024-03-12T13:09:38.090Z,-23424.38
2024-03-12T13:11:40.857Z,-23421.03
2024-03-12T13:13:43.727Z,-23417.06
2024-03-12T13:15:45.460Z,-23421.19
2024-03-12T13:17:48.172Z,-23424.69
2024-03-12T13:19:50.997Z,-23420.88
2024-03-12T13:21:57.159Z,-23427.84
2024-03-12T13:24:00.263Z,-23424.38
2024-03-12T13:26:02.420Z,-23420.25
2024-03-12T13:28:05.915Z,-23425.63
2024-03-12T13:30:09.498Z,-23432.63
2024-03-12T13:32:12.545Z,-23434.53
2024-03-12T13:34:14.371Z,-23449.13
2024-03-12T13:36:20.383Z,-23444.84
2024-03-12T13:38:23.581Z,-23453.09
2024-03-12T13:40:27.990Z,-23455.47
2024-03-12T13:42:30.810Z,-23457.22
2024-03-12T13:44:33.518Z,-23453.09
2024-03-12T13:46:36.453Z,-23455.78
2024-03-12T13:48:41.057Z,-23449.59
2024-03-12T13:50:44.654Z,-23458.50
2024-03-12T13:52:48.164Z,-23459.28
2024-03-12T13:54:55.378Z,-23458.66
2024-03-12T13:56:58.096Z,-23465.00
2024-03-12T13:59:00.974Z,-23464.38
2024-03-12T14:01:05.682Z,-23465.00
2024-03-12T14:03:09.775Z,-23455.47
2024-03-12T14:05:13.719Z,-23453.91
2024-03-12T14:07:19.701Z,-23456.91
2024-03-12T14:09:22.810Z,-23467.84
2024-03-12T14:11:27.454Z,-23481.81
2024-03-12T14:13:30.400Z,-23477.03
2024-03-12T14:15:33.797Z,-23474.81
2024-03-12T14:17:37.495Z,-23475.16
2024-03-12T14:19:39.248Z,-23469.75
2024-03-12T14:21:42.205Z,-23465.00
2024-03-12T14:23:45.043Z,-23462.78
2024-03-12T14:25:48.847Z,-23464.69
2024-03-12T14:27:53.252Z,-23467.06
2024-03-12T14:29:56.032Z,-23465.31
2024-03-12T14:31:58.909Z,-23459.91
2024-03-12T14:34:01.738Z,-23458.50
2024-03-12T14:36:04.005Z,-23454.22
2024-03-12T14:38:06.759Z,-23454.84
2024-03-12T14:40:10.690Z,-23452.00
2024-03-12T14:42:14.104Z,-23449.78
2024-03-12T14:44:18.242Z,-23443.75
2024-03-12T14:46:20.214Z,-23445.31
2024-03-12T14:48:22.966Z,-23441.19
2024-03-12T14:50:25.704Z,-23444.38
2024-03-12T14:52:28.506Z,-23441.84
2024-03-12T14:54:31.190Z,-23438.50
2024-03-12T14:56:34.038Z,-23437.22
2024-03-12T14:58:36.807Z,-23434.69
2024-03-12T15:00:41.099Z,-23434.38
2024-03-12T15:02:43.364Z,-23435.47
2024-03-12T15:04:48.089Z,-23432.94
2024-03-12T15:06:50.897Z,-23435.81
2024-03-12T15:08:55.261Z,-23436.44
2024-03-12T15:10:58.224Z,-23436.13
2024-03-12T15:13:00.977Z,-23437.41
2024-03-12T15:15:04.022Z,-23437.88
2024-03-12T15:17:08.715Z,-23439.47
2024-03-12T15:19:11.515Z,-23439.59
2024-03-12T15:21:15.816Z,-23443.41
2024-03-12T15:23:18.565Z,-23443.75
2024-03-12T15:25:21.452Z,-23447.53
2024-03-12T15:27:24.189Z,-23446.59
2024-03-12T15:29:29.248Z,-23444.06
2024-03-12T15:31:31.206Z,-23446.59
2024-03-12T15:33:36.618Z,-23445.47
2024-03-12T15:35:40.423Z,-23449.78
2024-03-12T15:37:43.324Z,-23444.69
2024-03-12T15:39:46.241Z,-23442.16
2024-03-12T15:41:49.356Z,-23443.25
2024-03-12T15:43:51.644Z,-23436.13
2024-03-12T15:45:55.542Z,-23438.34
2024-03-12T15:48:01.328Z,-23438.97
2024-03-12T15:50:06.983Z,-23442.94
2024-03-12T15:52:09.839Z,-23441.53
2024-03-12T15:54:15.646Z,-23440.25
2024-03-12T15:56:18.483Z,-23437.41
2024-03-12T15:58:21.964Z,-23442.00
2024-03-12T16:00:24.752Z,-23440.88
2024-03-12T16:02:27.936Z,-23434.84
2024-03-12T16:04:31.042Z,-23435.81
2024-03-12T16:06:35.223Z,-23437.41
2024-03-12T16:08:38.361Z,-23436.13
2024-03-12T16:10:41.159Z,-23438.34
2024-03-12T16:12:46.343Z,-23438.34
2024-03-12T16:14:49.545Z,-23440.88
2024-03-12T16:16:52.209Z,-23435.97
2024-03-12T16:18:55.324Z,-23439.47
2024-03-12T16:20:58.418Z,-23442.00
2024-03-12T16:23:01.525Z,-23443.75
2024-03-12T16:25:04.657Z,-23437.72
2024-03-12T16:27:07.996Z,-23434.84
2024-03-12T16:29:10.743Z,-23436.91
2024-03-12T16:31:14.759Z,-23432.78
2024-03-12T16:33:17.613Z,-23431.84
2024-03-12T16:35:19.405Z,-23429.28
2024-03-12T16:37:22.211Z,-23431.34
2024-03-12T16:39:27.302Z,-23428.19
2024-03-12T16:41:30.160Z,-23425.97
2024-03-12T16:43:32.840Z,-23429.44
2024-03-12T16:45:35.848Z,-23427.06
2024-03-12T16:47:37.782Z,-23428.81
2024-03-12T16:49:40.594Z,-23422.78
2024-03-12T16:51:43.278Z,-23425.00
2024-03-12T16:53:46.081Z,-23420.41
2024-03-12T16:55:50.676Z,-23422.16
2024-03-12T16:57:53.931Z,-23423.72
2024-03-12T16:59:57.985Z,-23418.66
2024-03-12T17:02:01.961Z,-23420.41
2024-03-12T17:04:04.523Z,-23417.38
2024-03-12T17:06:08.118Z,-23417.38
2024-03-12T17:08:10.288Z,-23416.09
2024-03-12T17:10:14.867Z,-23414.22
2024-03-12T17:12:20.918Z,-23412.31
2024-03-12T17:14:30.534Z,-23413.25
2024-03-12T17:16:39.926Z,-23411.97
2024-03-12T17:18:43.888Z,-23410.06
2024-03-12T17:20:47.680Z,-23411.03
2024-03-12T17:22:51.995Z,-23408.97
2024-03-12T17:24:55.309Z,-23408.16
2024-03-12T17:26:57.965Z,-23408.81
2024-03-12T17:29:03.763Z,-23407.69
2024-03-12T17:31:07.924Z,-23408.81
2024-03-12T17:33:13.585Z,-23405.94
2024-03-12T17:35:18.922Z,-23405.94
2024-03-12T17:37:25.306Z,-23407.84
2024-03-12T17:39:32.549Z,-23405.63
2024-03-12T17:41:35.686Z,-23404.34
2024-03-12T17:43:38.954Z,-23402.78
2024-03-12T17:45:43.462Z,-23404.84
2024-03-12T17:47:48.552Z,-23403.09
2024-03-12T17:49:55.526Z,-23400.53
2024-03-12T17:51:59.405Z,-23398.47
2024-03-12T17:54:02.756Z,-23398.16
2024-03-12T17:56:11.528Z,-23396.88
2024-03-12T17:58:17.901Z,-23393.09
2024-03-12T18:00:20.543Z,-23394.66
2024-03-12T18:02:25.067Z,-23394.50
2024-03-12T18:04:28.722Z,-23391.00
2024-03-12T18:06:35.346Z,-23394.50
2024-03-12T18:08:43.319Z,-23391.00
2024-03-12T18:10:48.273Z,-23392.28
2024-03-12T18:12:51.611Z,-23392.28
2024-03-12T18:14:56.105Z,-23392.44
2024-03-12T18:16:58.945Z,-23393.88
2024-03-12T18:19:03.112Z,-23391.00
2024-03-12T18:21:08.133Z,-23389.75
2024-03-12T18:23:14.599Z,-23391.50
2024-03-12T18:25:17.463Z,-23391.50
2024-03-12T18:27:21.068Z,-23389.75
2024-03-12T18:29:23.941Z,-23390.06
2024-03-12T18:31:26.882Z,-23391.50
2024-03-12T18:33:29.631Z,-23390.69
2024-03-12T18:35:33.653Z,-23389.25
2024-03-12T18:37:38.888Z,-23390.53
2024-03-12T18:39:41.751Z,-23388.47
2024-03-12T18:44:29.919Z,-23390.53
2024-03-12T18:46:33.018Z,-23392.59
2024-03-12T18:48:36.961Z,-23392.28
2024-03-12T18:50:41.494Z,-23391.66
2024-03-12T18:52:45.717Z,-23391.81
2024-03-12T18:54:49.019Z,-23392.44
2024-03-12T18:56:52.498Z,-23392.44
2024-03-12T18:58:56.268Z,-23390.69
2024-03-12T19:00:59.791Z,-23392.75
2024-03-12T19:03:15.629Z,-23394.81
2024-03-12T19:05:18.694Z,-23393.41
2024-03-12T19:07:24.028Z,-23393.56
2024-03-12T19:09:27.666Z,-23394.34
2024-03-12T19:11:32.042Z,-23393.56
2024-03-12T19:13:34.480Z,-23392.59
2024-03-12T19:15:38.239Z,-23391.66
2024-03-12T19:17:43.160Z,-23390.69
2024-03-12T19:19:46.813Z,-23391.81
2024-03-12T19:21:49.057Z,-23392.91
2024-03-12T19:23:55.506Z,-23393.56
2024-03-12T19:25:59.813Z,-23389.75
2024-03-12T19:28:04.146Z,-23391.16
2024-03-12T19:30:06.987Z,-23391.00
2024-03-12T19:32:11.770Z,-23391.34
2024-03-12T19:34:17.629Z,-23392.91
2024-03-12T19:36:23.910Z,-23390.69
2024-03-12T19:38:27.272Z,-23391.66
2024-03-12T19:40:31.659Z,-23392.59
2024-03-12T19:42:35.275Z,-23390.06
2024-03-12T19:44:37.288Z,-23387.34
2024-03-12T19:46:41.241Z,-23389.44
2024-03-12T19:48:44.754Z,-23388.16
2024-03-12T19:50:47.786Z,-23389.25
2024-03-12T19:52:51.625Z,-23388.63
2024-03-12T19:54:54.432Z,-23388.16
2024-03-12T19:56:58.304Z,-23382.91
2024-03-12T19:59:01.058Z,-23382.44
2024-03-12T20:01:04.200Z,-23385.59
2024-03-12T20:03:06.688Z,-23380.22
2024-03-12T20:05:12.255Z,-23380.53
2024-03-12T20:07:15.399Z,-23378.94
2024-03-12T20:09:23.771Z,-23379.88
2024-03-12T20:11:26.604Z,-23381.97
2024-03-12T20:13:30.777Z,-23379.56
2024-03-12T20:15:33.491Z,-23379.56
2024-03-12T20:17:36.332Z,-23378.47
2024-03-12T20:19:40.915Z,-23379.41
2024-03-12T20:21:46.054Z,-23378.94
2024-03-12T20:23:48.769Z,-23378.63
2024-03-12T20:25:52.858Z,-23374.97
2024-03-12T20:27:55.472Z,-23374.50
2024-03-12T20:30:00.235Z,-19245.28
2024-03-12T20:32:07.788Z,-12848.56
2024-03-12T20:34:10.625Z,-7986.47
2024-03-12T20:36:13.585Z,-1233.84
2024-03-12T20:38:16.385Z,1987.03
2024-03-12T20:40:20.956Z,2308.03
2024-03-12T20:42:26.203Z,3597.03
2024-03-12T20:44:29.560Z,4240.34
2024-03-12T20:46:33.807Z,11982.50
2024-03-12T20:48:38.166Z,16830.91
2024-03-12T20:50:41.893Z,15858.56
2024-03-12T20:52:43.640Z,20386.28
2024-03-12T20:54:46.445Z,26860.81
2024-03-12T20:56:49.105Z,31073.84
2024-03-12T20:58:51.836Z,34652.44
2024-03-12T21:00:55.209Z,30101.25
2024-03-12T21:02:59.713Z,33346.44
2024-03-12T21:05:02.630Z,35944.00
2024-03-12T21:07:05.968Z,38217.13
2024-03-12T21:09:13.701Z,39190.88
2024-03-12T21:11:16.664Z,39514.53
2024-03-12T21:13:21.267Z,42442.31
2024-03-12T21:15:24.352Z,45694.72
2024-03-12T21:17:28.036Z,49602.09
2024-03-12T21:19:32.489Z,49272.72
2024-03-12T21:21:35.325Z,52536.41
2024-03-12T21:23:38.218Z,53512.19
2024-03-12T21:25:40.932Z,55137.28
2024-03-12T21:27:43.677Z,55789.00
2024-03-12T21:29:46.794Z,57096.19
2024-03-12T21:31:50.854Z,58073.72
2024-03-12T21:33:54.074Z,59707.88
2024-03-12T21:35:58.410Z,59705.25
2024-03-12T21:38:00.099Z,60361.31
2024-03-12T21:40:02.925Z,60680.59
2024-03-12T21:42:06.918Z,61658.78
2024-03-12T21:44:09.976Z,61667.41
2024-03-12T21:46:12.060Z,61992.09
2024-03-12T21:48:14.874Z,61337.91
2024-03-12T21:50:18.407Z,59785.34
2024-03-12T21:52:22.551Z,59214.66
2024-03-12T21:54:24.493Z,59293.28
2024-03-12T21:56:27.568Z,58497.69
2024-03-12T21:58:31.062Z,58044.09
2024-03-12T22:00:34.723Z,57554.88
2024-03-12T22:02:36.952Z,57814.03
2024-03-12T22:04:39.807Z,56571.03
2024-03-12T22:06:43.475Z,56759.25
2024-03-12T22:08:47.977Z,56501.19
2024-03-12T22:10:52.233Z,56192.53
2024-03-12T22:12:55.069Z,55073.31
2024-03-12T22:14:58.512Z,54551.34
2024-03-12T22:17:01.273Z,53671.63
2024-03-12T22:19:07.352Z,53832.78
2024-03-12T22:21:12.013Z,53793.44
2024-03-12T22:23:18.909Z,52006.16
2024-03-12T22:25:23.557Z,49475.91
2024-03-12T22:27:25.698Z,48950.41
2024-03-12T22:29:28.518Z,48834.25
2024-03-12T22:31:31.254Z,49062.53
2024-03-12T22:33:34.875Z,47766.22
2024-03-12T22:35:37.617Z,46816.31
2024-03-12T22:37:43.443Z,45542.50
2024-03-12T22:39:45.816Z,44732.84
2024-03-12T22:41:50.625Z,43905.09
2024-03-12T22:43:53.981Z,42790.19
2024-03-12T22:45:57.143Z,41719.28
2024-03-12T22:48:00.380Z,40736.84
2024-03-12T22:50:03.075Z,39369.94
2024-03-12T22:52:07.844Z,38438.31
2024-03-12T22:54:11.274Z,37554.72
2024-03-12T22:56:18.288Z,37174.25
2024-03-12T22:58:23.339Z,35175.31
2024-03-12T23:00:34.501Z,34632.84
2024-03-12T23:02:37.409Z,33795.50
2024-03-12T23:04:41.332Z,33271.63
2024-03-12T23:06:44.520Z,32637.34
2024-03-12T23:08:47.841Z,31687.97
2024-03-12T23:10:50.642Z,30514.44
2024-03-12T23:12:57.471Z,28860.94
2024-03-12T23:15:02.504Z,27564.41
2024-03-12T23:17:06.124Z,26198.25
2024-03-12T23:19:10.354Z,25268.91
2024-03-12T23:21:12.236Z,24452.75
2024-03-12T23:23:16.321Z,23385.22
2024-03-12T23:25:18.400Z,23114.59
2024-03-12T23:27:21.223Z,22289.00
2024-03-12T23:29:24.539Z,21401.66
2024-03-12T23:31:27.902Z,20741.66
2024-03-12T23:33:31.245Z,20838.44
2024-03-12T23:35:34.631Z,20596.59
2024-03-12T23:37:39.528Z,19448.13
2024-03-12T23:39:43.868Z,17622.09
2024-03-12T23:41:46.670Z,16485.53
2024-03-12T23:43:49.512Z,15612.69
2024-03-12T23:45:52.330Z,14912.44